createdAt,value
2018-11-23T00:00:20.365Z,2.91
2018-11-23T00:05:18.267Z,3.04
2018-11-23T00:10:16.973Z,3.11
2018-11-23T00:15:17.466Z,3.16
2018-11-23T00:20:16.253Z,3.03
2018-11-23T00:25:17.931Z,2.85
2018-11-23T00:30:18.312Z,2.94
2018-11-23T00:35:17.443Z,3.01
2018-11-23T00:40:22.180Z,3.07
2018-11-23T00:45:19.668Z,2.87
2018-11-23T00:50:18.372Z,2.75
2018-11-23T00:55:16.883Z,2.85
2018-11-23T01:00:33.135Z,3.27
2018-11-23T01:05:30.581Z,2.98
2018-11-23T01:10:28.860Z,3.15
2018-11-23T01:15:26.299Z,3.06
2018-11-23T01:20:24.937Z,3.13
2018-11-23T01:25:23.233Z,3.11
2018-11-23T01:30:23.053Z,2.91
2018-11-23T01:35:20.502Z,2.64
2018-11-23T01:40:23.267Z,2.39
2018-11-23T01:45:20.781Z,2.22
2018-11-23T01:50:19.611Z,2.02
2018-11-23T01:55:17.843Z,1.99
2018-11-23T02:00:20.074Z,1.78
2018-11-23T02:05:17.545Z,1.71
2018-11-23T02:10:16.049Z,1.98
2018-11-23T02:15:15.184Z,2.10
2018-11-23T02:20:14.194Z,1.66
2018-11-23T02:25:11.689Z,1.25
2018-11-23T02:30:12.775Z,1.45
2018-11-23T02:35:10.509Z,1.35
2018-11-23T02:40:09.116Z,1.37
2018-11-23T02:45:08.564Z,1.41
2018-11-23T02:50:06.312Z,1.37
2018-11-23T02:55:04.365Z,1.34
2018-11-23T03:00:09.892Z,1.47
2018-11-23T03:05:08.820Z,1.44
2018-11-23T03:10:07.665Z,1.30
2018-11-23T03:15:06.044Z,0.90
2018-11-23T03:20:03.738Z,0.81
2018-11-23T03:25:01.172Z,1.20
2018-11-23T03:29:59.969Z,1.14
2018-11-23T03:34:57.511Z,1.36
2018-11-23T03:39:55.115Z,1.33
2018-11-23T03:44:52.513Z,1.15
2018-11-23T03:49:49.961Z,1.33
2018-11-23T03:54:47.383Z,1.14
2018-11-23T03:59:52.241Z,0.93
2018-11-23T04:04:49.722Z,0.66
2018-11-23T04:09:47.241Z,1.30
2018-11-23T04:14:44.636Z,0.95
2018-11-23T04:19:42.045Z,1.16
2018-11-23T04:24:39.441Z,1.10
2018-11-23T04:29:41.316Z,0.92
2018-11-23T04:34:38.797Z,0.71
2018-11-23T04:39:36.260Z,0.81
2018-11-23T04:44:33.660Z,1.08
2018-11-23T04:49:31.069Z,0.96
2018-11-23T04:54:28.487Z,0.64
2018-11-23T04:59:34.736Z,0.56
2018-11-23T05:04:32.197Z,0.34
2018-11-23T05:09:29.612Z,0.65
2018-11-23T05:14:27.030Z,0.91
2018-11-23T05:19:24.454Z,0.53
2018-11-23T05:24:21.904Z,0.98
2018-11-23T05:29:26.784Z,0.44
2018-11-23T05:34:24.287Z,0.28
2018-11-23T05:39:21.691Z,0.07
2018-11-23T05:44:19.102Z,0.09
2018-11-23T05:49:16.524Z,-0.10
2018-11-23T05:54:14.003Z,-0.13
2018-11-23T05:59:14.719Z,-0.13
2018-11-23T06:04:12.396Z,-0.31
2018-11-23T06:09:09.829Z,-0.34
2018-11-23T06:14:07.305Z,0.11
2018-11-23T06:19:04.784Z,0.37
2018-11-23T06:24:02.257Z,0.16
2018-11-23T06:28:59.760Z,0.02
2018-11-23T06:33:57.228Z,-0.43
2018-11-23T06:38:54.639Z,0.16
2018-11-23T06:43:52.411Z,0.14
2018-11-23T06:49:04.208Z,0.11
2018-11-23T06:54:01.861Z,-0.08
2018-11-23T06:58:59.438Z,0.24
2018-11-23T07:03:56.920Z,0.22
2018-11-23T07:08:54.359Z,-0.06
2018-11-23T07:13:52.114Z,-0.05
2018-11-23T07:18:49.577Z,0.53
2018-11-23T07:23:47.008Z,0.35
2018-11-23T07:28:44.488Z,0.37
2018-11-23T07:33:41.952Z,0.51
2018-11-23T07:38:39.537Z,0.77
2018-11-23T07:43:36.977Z,0.91
2018-11-23T07:48:34.493Z,0.92
2018-11-23T07:53:32.029Z,0.72
2018-11-23T07:58:29.510Z,1.12
2018-11-23T08:03:26.986Z,1.30
2018-11-23T08:08:24.434Z,1.27
2018-11-23T08:13:21.955Z,1.63
2018-11-23T08:18:19.454Z,1.67
2018-11-23T08:23:18.427Z,1.66
2018-11-23T08:28:16.013Z,1.89
2018-11-23T08:33:13.685Z,2.28
2018-11-23T08:38:11.153Z,2.46
2018-11-23T08:43:08.631Z,2.38
2018-11-23T08:48:06.085Z,2.63
2018-11-23T08:53:03.698Z,2.80
2018-11-23T08:58:01.190Z,3.05
2018-11-23T09:03:00.146Z,3.31
2018-11-23T09:08:01.862Z,3.36
2018-11-23T09:13:06.689Z,3.22
2018-11-23T09:18:04.484Z,3.24
2018-11-23T09:23:01.961Z,3.11
2018-11-23T09:27:59.420Z,2.98
2018-11-23T09:32:57.469Z,2.96
2018-11-23T09:37:54.985Z,2.72
2018-11-23T09:42:52.645Z,2.55
2018-11-23T09:47:51.610Z,2.61
2018-11-23T09:52:50.512Z,2.61
2018-11-23T09:57:47.982Z,2.73
2018-11-23T10:02:46.216Z,2.84
2018-11-23T10:07:45.201Z,3.08
2018-11-23T10:12:42.945Z,2.73
2018-11-23T10:17:40.693Z,2.77
2018-11-23T10:22:38.336Z,3.01
2018-11-23T10:27:35.793Z,2.75
2018-11-23T10:32:33.279Z,2.86
2018-11-23T10:37:30.761Z,2.91
2018-11-23T10:42:29.052Z,3.36
2018-11-23T10:47:26.511Z,3.33
2018-11-23T10:52:23.983Z,3.22
2018-11-23T10:57:21.406Z,3.29
2018-11-23T11:02:24.605Z,3.07
2018-11-23T11:07:22.054Z,3.12
2018-11-23T11:12:19.535Z,3.30
2018-11-23T11:17:16.984Z,3.41
2018-11-23T11:22:14.467Z,3.28
2018-11-23T11:27:11.936Z,3.33
2018-11-23T11:32:09.462Z,3.24
2018-11-23T11:37:06.911Z,3.48
2018-11-23T11:42:04.500Z,3.56
2018-11-23T11:47:02.260Z,3.92
2018-11-23T11:51:59.711Z,4.14
2018-11-23T11:56:57.154Z,4.13
2018-11-23T12:01:54.683Z,4.19
2018-11-23T12:06:52.116Z,4.07
2018-11-23T12:11:49.598Z,4.01
2018-11-23T12:16:47.117Z,4.28
2018-11-23T12:21:44.601Z,4.01
2018-11-23T12:26:42.661Z,4.31
2018-11-23T12:31:40.214Z,4.40
2018-11-23T12:36:37.693Z,4.23
2018-11-23T12:41:35.147Z,4.32
2018-11-23T12:46:32.604Z,4.24
2018-11-23T12:51:30.091Z,4.18
2018-11-23T12:56:27.702Z,4.19
2018-11-23T13:01:25.272Z,4.32
2018-11-23T13:06:22.952Z,4.30
2018-11-23T13:11:20.713Z,4.39
2018-11-23T13:16:18.176Z,4.49
2018-11-23T13:21:15.717Z,4.68
2018-11-23T13:26:13.207Z,4.52
2018-11-23T13:31:10.673Z,4.46
2018-11-23T13:36:09.179Z,4.24
2018-11-23T13:41:06.801Z,4.31
2018-11-23T13:46:04.422Z,4.34
2018-11-23T13:51:02.044Z,3.93
2018-11-23T13:55:59.561Z,3.90
2018-11-23T14:00:57.079Z,3.98
2018-11-23T14:05:54.548Z,4.00
2018-11-23T14:10:52.429Z,3.93
2018-11-23T14:15:50.070Z,4.08
2018-11-23T14:20:49.068Z,4.17
2018-11-23T14:25:49.189Z,4.13
2018-11-23T14:30:48.463Z,3.92
2018-11-23T14:35:47.456Z,3.73
2018-11-23T14:40:46.323Z,3.77
2018-11-23T14:45:45.673Z,3.77
2018-11-23T14:50:50.589Z,3.76
2018-11-23T14:55:48.042Z,3.76
2018-11-23T15:00:45.536Z,3.55
2018-11-23T15:05:43.116Z,3.44
2018-11-23T15:10:40.626Z,3.22
2018-11-23T15:15:39.504Z,3.09
2018-11-23T15:20:40.246Z,3.08
2018-11-23T15:25:37.980Z,2.83
2018-11-23T15:30:37.532Z,2.75
2018-11-23T15:35:35.845Z,2.79
2018-11-23T15:40:33.530Z,2.71
2018-11-23T15:45:31.870Z,2.59
2018-11-23T15:50:32.608Z,2.60
2018-11-23T15:55:31.686Z,2.53
2018-11-23T16:00:32.765Z,2.51
2018-11-23T16:05:30.187Z,2.47
2018-11-23T16:10:29.051Z,2.46
2018-11-23T16:15:28.553Z,2.44
2018-11-23T16:20:28.674Z,2.38
2018-11-23T16:25:26.432Z,2.29
2018-11-23T16:30:27.249Z,1.95
2018-11-23T16:35:26.422Z,1.92
2018-11-23T16:40:25.309Z,2.34
2018-11-23T16:45:24.263Z,2.43
2018-11-23T16:50:21.801Z,2.10
2018-11-23T16:55:20.231Z,2.11
2018-11-23T17:00:21.757Z,2.01
2018-11-23T17:05:20.798Z,1.64
2018-11-23T17:10:18.745Z,1.99
2018-11-23T17:15:17.465Z,2.12
2018-11-23T17:20:16.264Z,1.96
2018-11-23T17:25:15.134Z,1.90
2018-11-23T17:30:16.524Z,2.11
2018-11-23T17:35:13.978Z,2.25
2018-11-23T17:40:13.672Z,2.17
2018-11-23T17:45:15.734Z,1.97
2018-11-23T17:50:15.184Z,2.06
2018-11-23T17:55:13.507Z,2.00
2018-11-23T18:00:14.680Z,2.04
2018-11-23T18:05:13.255Z,2.17
2018-11-23T18:10:14.014Z,2.17
2018-11-23T18:15:14.924Z,2.02
2018-11-23T18:20:13.569Z,1.96
2018-11-23T18:25:14.172Z,2.12
2018-11-23T18:30:13.749Z,1.98
2018-11-23T18:35:12.234Z,2.23
2018-11-23T18:40:12.052Z,2.13
2018-11-23T18:45:10.738Z,2.07
2018-11-23T18:50:12.094Z,2.01
2018-11-23T18:55:17.498Z,2.18
2018-11-23T19:00:10.691Z,2.14
2018-11-23T19:05:18.144Z,2.04
2018-11-23T19:10:15.581Z,2.06
2018-11-23T19:15:15.044Z,2.03
2018-11-23T19:20:15.401Z,2.11
2018-11-23T19:25:12.856Z,2.03
2018-11-23T19:30:13.082Z,1.94
2018-11-23T19:35:10.521Z,1.98
2018-11-23T19:40:09.486Z,1.99
2018-11-23T19:45:10.476Z,2.00
2018-11-23T19:50:13.598Z,1.93
2018-11-23T19:55:12.806Z,1.87
2018-11-23T20:00:18.256Z,1.79
2018-11-23T20:05:16.410Z,1.80
2018-11-23T20:10:15.710Z,1.86
2018-11-23T20:15:15.095Z,1.76
2018-11-23T20:20:14.094Z,1.77
2018-11-23T20:25:13.398Z,1.80
2018-11-23T20:30:14.660Z,1.80
2018-11-23T20:35:13.747Z,1.94
2018-11-23T20:40:15.540Z,1.75
2018-11-23T20:45:13.621Z,1.79
2018-11-23T20:50:13.991Z,1.89
2018-11-23T20:55:14.087Z,1.67
2018-11-23T21:00:14.474Z,1.67
2018-11-23T21:05:13.442Z,1.88
2018-11-23T21:10:19.975Z,1.87
2018-11-23T21:15:15.862Z,1.74
2018-11-23T21:20:13.387Z,1.64
2018-11-23T21:25:11.396Z,1.68
2018-11-23T21:30:15.657Z,1.55
2018-11-23T21:35:13.971Z,1.47
2018-11-23T21:40:13.771Z,1.63
2018-11-23T21:45:14.402Z,1.59
2018-11-23T21:50:15.897Z,1.51
2018-11-23T21:55:22.274Z,1.52
2018-11-23T22:00:21.414Z,1.43
2018-11-23T22:05:19.544Z,1.45
2018-11-23T22:10:18.268Z,1.33
2018-11-23T22:15:22.229Z,1.27
2018-11-23T22:20:21.179Z,1.22
2018-11-23T22:25:21.225Z,0.90
2018-11-23T22:30:28.977Z,0.97
2018-11-23T22:35:28.351Z,0.91
2018-11-23T22:40:26.394Z,0.86
2018-11-23T22:45:24.458Z,1.00
2018-11-23T22:50:23.230Z,0.94
2018-11-23T22:55:21.304Z,1.02
2018-11-23T23:00:40.339Z,1.13
2018-11-23T23:05:38.316Z,0.92
2018-11-23T23:10:57.997Z,0.99
2018-11-23T23:15:56.196Z,1.11
2018-11-23T23:20:54.243Z,0.95
2018-11-23T23:25:52.455Z,1.08
2018-11-23T23:30:50.582Z,1.07
2018-11-23T23:35:52.553Z,1.23
2018-11-23T23:40:56.577Z,1.14
2018-11-23T23:45:54.141Z,1.15
2018-11-23T23:50:58.629Z,1.13
2018-11-23T23:56:01.563Z,1.23
